Time;durP1;ratioP1;P1;durP2;ratioP2;P2;SDS_P1;SDS_P2;PMS_P1;PMS_P2;Temp;Humidity;BMP_temperature;BMP_pressure;BME280_temperature;BME280_humidity;BME280_pressure;Samples;Min_cycle;Max_cycle;Signal;HPM_P1;HPM_P2
2021/04/19 00:00:19;;;;;;;11.52;9.18;;;;;;;7.96;70.78;101589.72;686218;28;21532;-60
2021/04/19 00:00:40;;;;;;;12.00;9.15;;;;;;;7.98;70.80;101595.81;686660;28;1026;-60
2021/04/19 00:01:03;;;;;;;11.00;8.63;;;;;;;7.98;70.63;101595.81;686878;28;870;-55
2021/04/19 00:01:24;;;;;;;9.90;8.50;;;;;;;7.96;70.82;101590.56;684193;28;63907;-58
2021/04/19 00:01:45;;;;;;;10.85;8.52;;;;;;;7.95;70.69;101594.25;683254;28;8090;-59
2021/04/19 00:02:07;;;;;;;9.40;8.27;;;;;;;7.93;70.54;101597.09;682012;28;42778;-59
2021/04/19 00:02:28;;;;;;;10.07;8.38;;;;;;;7.92;70.70;101595.38;683113;28;22398;-60
2021/04/19 00:02:50;;;;;;;11.52;8.60;;;;;;;7.93;70.60;101593.53;683171;28;20849;-58
2021/04/19 00:03:11;;;;;;;10.45;8.57;;;;;;;7.94;70.76;101592.56;683157;28;23482;-59
2021/04/19 00:03:32;;;;;;;9.13;8.18;;;;;;;7.92;70.44;101591.84;683538;28;23509;-60
2021/04/19 00:03:53;;;;;;;11.98;8.77;;;;;;;7.90;70.61;101588.47;685275;28;44373;-59
2021/04/19 00:04:14;;;;;;;11.75;8.65;;;;;;;7.89;70.60;101587.59;684882;28;22452;-59
2021/04/19 00:04:38;;;;;;;10.55;8.35;;;;;;;7.89;70.69;101582.19;684796;28;22274;-60
2021/04/19 00:04:59;;;;;;;10.73;8.55;;;;;;;7.89;70.91;101589.44;684457;28;69473;-58
2021/04/19 00:05:20;;;;;;;10.23;8.32;;;;;;;7.89;70.55;101584.06;686043;28;21270;-59
2021/04/19 00:05:42;;;;;;;10.43;8.75;;;;;;;7.89;70.63;101581.38;683837;28;44735;-57
2021/04/19 00:06:04;;;;;;;8.90;7.93;;;;;;;7.89;70.84;101592.13;684856;28;22438;-59
2021/04/19 00:06:25;;;;;;;10.73;8.43;;;;;;;7.87;70.54;101589.56;683800;28;1123;-60
2021/04/19 00:06:50;;;;;;;10.93;8.55;;;;;;;7.89;70.70;101592.97;680264;29;36465;-58
2021/04/19 00:07:11;;;;;;;9.40;8.40;;;;;;;7.88;70.71;101588.59;679876;29;43789;-60
2021/04/19 00:07:33;;;;;;;9.70;8.43;;;;;;;7.89;70.51;101587.59;680421;29;22368;-60
2021/04/19 00:07:54;;;;;;;9.63;8.23;;;;;;;7.89;70.54;101586.75;680528;29;23450;-60
2021/04/19 00:08:15;;;;;;;10.67;8.53;;;;;;;7.87;70.54;101586.88;682263;28;6387;-61
2021/04/19 00:08:36;;;;;;;11.60;8.70;;;;;;;7.88;70.71;101588.59;682744;28;46417;-58
2021/04/19 00:08:58;;;;;;;9.85;8.65;;;;;;;7.87;70.66;101586.88;686818;28;845;-58
2021/04/19 00:09:19;;;;;;;10.65;8.82;;;;;;;7.88;70.64;101583.22;685857;28;23551;-59
2021/04/19 00:09:40;;;;;;;10.38;8.82;;;;;;;7.89;70.91;101584.06;685804;28;7300;-59
2021/04/19 00:10:01;;;;;;;10.65;8.85;;;;;;;7.88;70.88;101580.53;685895;28;23424;-60
2021/04/19 00:10:24;;;;;;;10.02;8.60;;;;;;;7.88;70.91;101583.22;685307;28;46437;-60
2021/04/19 00:10:45;;;;;;;11.18;9.30;;;;;;;7.87;70.74;101586.88;684920;28;58550;-57
2021/04/19 00:11:06;;;;;;;10.90;8.75;;;;;;;7.87;71.01;101588.72;685923;28;23479;-58
2021/04/19 00:11:27;;;;;;;11.52;9.07;;;;;;;7.87;70.58;101588.72;686282;28;22367;-58
2021/04/19 00:11:49;;;;;;;10.80;8.80;;;;;;;7.85;70.88;101591.56;686084;28;17722;-60
2021/04/19 00:12:10;;;;;;;11.48;8.68;;;;;;;7.85;70.85;101593.38;686075;28;15803;-56
2021/04/19 00:12:32;;;;;;;12.02;8.82;;;;;;;7.83;71.02;101580.06;685321;28;43658;-58
2021/04/19 00:12:53;;;;;;;12.07;9.10;;;;;;;7.83;70.97;101584.59;686107;28;23477;-57
2021/04/19 00:13:14;;;;;;;11.38;9.18;;;;;;;7.83;71.05;101582.75;684872;28;46508;-58
2021/04/19 00:13:36;;;;;;;11.05;9.02;;;;;;;7.82;70.85;101591.84;685994;28;23404;-58
2021/04/19 00:13:57;;;;;;;12.63;9.48;;;;;;;7.82;71.08;101589.16;686039;28;21586;-55
2021/04/19 00:14:18;;;;;;;13.48;9.10;;;;;;;7.81;70.78;101590.13;686234;28;21569;-59
2021/04/19 00:14:40;;;;;;;11.48;9.15;;;;;;;7.81;71.18;101581.22;682855;28;23513;-59
2021/04/19 00:15:02;;;;;;;10.40;8.60;;;;;;;7.80;71.04;101585.72;682603;28;46342;-59
2021/04/19 00:15:24;;;;;;;11.02;8.70;;;;;;;7.81;71.07;101581.22;681609;28;66821;-58
2021/04/19 00:15:45;;;;;;;12.15;8.90;;;;;;;7.81;71.06;101586.59;683220;28;22435;-59
2021/04/19 00:16:06;;;;;;;11.43;8.93;;;;;;;7.81;71.04;101581.22;682365;28;44156;-59
2021/04/19 00:16:28;;;;;;;10.13;8.60;;;;;;;7.82;70.86;101591.84;684338;28;18591;-61
2021/04/19 00:16:49;;;;;;;9.32;8.32;;;;;;;7.82;70.99;101594.53;686187;28;23469;-61
2021/04/19 00:17:10;;;;;;;11.40;9.15;;;;;;;7.81;71.03;101591.97;684944;28;47659;-58
2021/04/19 00:17:31;;;;;;;13.30;9.68;;;;;;;7.81;71.04;101589.28;686175;28;18959;-59
2021/04/19 00:17:53;;;;;;;13.10;9.52;;;;;;;7.83;71.14;101592.69;686345;28;13412;-60
2021/04/19 00:18:15;;;;;;;13.57;9.93;;;;;;;7.84;71.15;101587.16;683608;28;41017;-60
2021/04/19 00:18:36;;;;;;;11.32;9.55;;;;;;;7.84;71.06;101589.84;684827;28;22192;-60
2021/04/19 00:18:57;;;;;;;11.48;9.15;;;;;;;7.85;70.95;101588.88;684079;28;44532;-59
2021/04/19 00:19:18;;;;;;;11.32;9.05;;;;;;;7.86;71.01;101590.56;684340;28;21518;-59
2021/04/19 00:19:40;;;;;;;13.88;9.18;;;;;;;7.86;70.89;101587.03;685749;28;23507;-60
2021/04/19 00:20:04;;;;;;;12.02;9.30;;;;;;;7.86;70.95;101595.09;682076;28;46339;-60
2021/04/19 00:20:25;;;;;;;11.32;9.18;;;;;;;7.85;70.85;101588.00;681880;28;58048;-58
2021/04/19 00:20:46;;;;;;;10.43;8.88;;;;;;;7.85;70.75;101594.25;683057;28;22397;-61
2021/04/19 00:21:07;;;;;;;12.45;9.52;;;;;;;7.84;71.05;101584.47;683091;28;22387;-60
2021/04/19 00:21:29;;;;;;;11.80;9.50;;;;;;;7.84;70.75;101589.84;683061;28;23496;-58
2021/04/19 00:21:50;;;;;;;11.48;9.38;;;;;;;7.84;70.86;101584.47;681900;28;46367;-59
2021/04/19 00:22:11;;;;;;;10.45;8.95;;;;;;;7.83;70.65;101582.75;685432;28;23559;-60
2021/04/19 00:22:33;;;;;;;10.35;8.52;;;;;;;7.84;70.73;101584.47;686162;28;23446;-58
2021/04/19 00:22:55;;;;;;;11.15;8.85;;;;;;;7.84;70.97;101589.84;684776;28;45286;-58
2021/04/19 00:23:16;;;;;;;12.95;9.75;;;;;;;7.84;70.83;101587.16;685501;28;44245;-59
2021/04/19 00:23:37;;;;;;;12.73;9.63;;;;;;;7.84;70.79;101584.47;686111;28;15127;-56
2021/04/19 00:23:58;;;;;;;11.65;9.40;;;;;;;7.83;70.95;101581.91;686676;28;14921;-59
2021/04/19 00:24:20;;;;;;;11.82;9.50;;;;;;;7.82;70.67;101578.38;685804;28;23460;-59
2021/04/19 00:24:41;;;;;;;12.60;9.43;;;;;;;7.82;70.81;101581.06;684046;28;44298;-60
2021/04/19 00:25:03;;;;;;;11.73;9.35;;;;;;;7.83;70.90;101587.28;686060;28;22402;-60
2021/04/19 00:25:25;;;;;;;12.90;9.50;;;;;;;7.80;71.14;101585.72;684895;28;46657;-58
2021/04/19 00:25:46;;;;;;;11.45;9.27;;;;;;;7.82;71.05;101580.22;685795;28;23474;-58
2021/04/19 00:26:07;;;;;;;11.97;9.43;;;;;;;7.81;70.87;101586.59;685700;28;23332;-57
2021/04/19 00:26:29;;;;;;;11.70;9.45;;;;;;;7.80;70.94;101585.72;685567;28;33271;-58
2021/04/19 00:26:50;;;;;;;12.43;9.90;;;;;;;7.79;70.87;101584.03;686420;28;10267;-60
2021/04/19 00:27:11;;;;;;;11.77;9.50;;;;;;;7.79;70.71;101583.16;686172;28;19301;-61
2021/04/19 00:27:32;;;;;;;11.45;9.10;;;;;;;7.79;70.88;101588.53;686064;28;21536;-58
2021/04/19 00:27:54;;;;;;;11.13;9.20;;;;;;;7.79;70.99;101585.84;685247;28;45854;-60
2021/04/19 00:28:15;;;;;;;10.50;8.88;;;;;;;7.79;70.99;101585.84;684863;28;23503;-59
2021/04/19 00:28:36;;;;;;;11.93;9.43;;;;;;;7.78;71.08;101582.31;684448;28;23511;-60
2021/04/19 00:28:57;;;;;;;10.90;9.20;;;;;;;7.78;71.05;101582.31;684828;28;22350;-60
2021/04/19 00:29:18;;;;;;;12.05;9.10;;;;;;;7.79;71.12;101584.03;684859;28;23649;-59
2021/04/19 00:29:39;;;;;;;11.40;8.70;;;;;;;7.80;70.86;101580.34;684813;28;46218;-58
2021/04/19 00:30:01;;;;;;;12.75;8.80;;;;;;;7.79;70.77;101580.47;686086;28;22379;-61
2021/04/19 00:30:23;;;;;;;12.23;9.30;;;;;;;7.81;70.89;101578.53;686348;28;21544;-58
2021/04/19 00:30:44;;;;;;;12.57;9.73;;;;;;;7.80;70.70;101577.66;685031;28;44388;-60
2021/04/19 00:31:05;;;;;;;12.38;9.80;;;;;;;7.79;70.67;101578.66;684047;28;45306;-58
2021/04/19 00:31:26;;;;;;;12.60;9.75;;;;;;;7.79;70.65;101585.84;682944;28;23441;-61
2021/04/19 00:31:47;;;;;;;12.10;9.18;;;;;;;7.78;70.81;101586.88;683069;28;21475;-59
2021/04/19 00:32:09;;;;;;;11.35;9.27;;;;;;;7.78;70.94;101585.03;682555;28;22770;-60
2021/04/19 00:32:30;;;;;;;11.25;9.40;;;;;;;7.77;70.97;101586.00;683133;28;22434;-61
2021/04/19 00:32:51;;;;;;;11.18;9.20;;;;;;;7.76;70.89;101581.63;683065;28;23188;-59
2021/04/19 00:33:13;;;;;;;11.52;9.05;;;;;;;7.76;70.95;101576.25;684047;28;1178;-60
2021/04/19 00:33:34;;;;;;;10.73;8.82;;;;;;;7.76;70.62;101581.63;685205;28;23679;-61
2021/04/19 00:33:55;;;;;;;10.98;8.77;;;;;;;7.75;71.06;101583.44;685262;28;46188;-59
2021/04/19 00:34:17;;;;;;;11.60;9.23;;;;;;;7.75;70.83;101582.59;685905;28;23478;-61
2021/04/19 00:34:38;;;;;;;12.90;9.45;;;;;;;7.74;70.90;101584.44;685855;28;23439;-61
2021/04/19 00:35:00;;;;;;;12.70;9.52;;;;;;;7.75;71.13;101583.44;686133;28;15899;-58
2021/04/19 00:35:22;;;;;;;12.80;9.88;;;;;;;7.76;70.94;101584.31;683756;28;45382;-60
2021/04/19 00:35:43;;;;;;;11.35;8.98;;;;;;;7.76;70.91;101578.94;683631;28;40150;-61
2021/04/19 00:36:04;;;;;;;12.27;8.82;;;;;;;7.75;70.87;101586.13;684822;28;14371;-58
2021/04/19 00:36:26;;;;;;;11.15;8.85;;;;;;;7.75;70.96;101593.34;686198;28;1247;-60
2021/04/19 00:36:47;;;;;;;11.30;9.27;;;;;;;7.74;71.01;101581.75;686131;28;14431;-60
2021/04/19 00:37:08;;;;;;;11.05;8.95;;;;;;;7.75;71.02;101586.13;685418;28;45269;-58
2021/04/19 00:37:29;;;;;;;9.50;8.20;;;;;;;7.74;70.81;101586.28;684565;28;14784;-58
2021/04/19 00:37:50;;;;;;;11.75;8.70;;;;;;;7.75;70.74;101582.59;684755;28;23504;-60
2021/04/19 00:38:12;;;;;;;10.85;9.00;;;;;;;7.75;70.92;101586.13;686265;28;18316;-60
2021/04/19 00:38:36;;;;;;;12.95;9.48;;;;;;;7.74;70.75;101586.28;684941;28;14863;-61
2021/04/19 00:38:58;;;;;;;11.23;9.20;;;;;;;7.73;70.76;101590.81;684577;28;26998;-59
2021/04/19 00:39:19;;;;;;;10.57;8.80;;;;;;;7.74;70.78;101584.44;684943;28;1969;-60
2021/04/19 00:39:41;;;;;;;11.57;9.23;;;;;;;7.74;70.86;101584.44;684706;28;45349;-60
2021/04/19 00:40:06;;;;;;;13.23;9.68;;;;;;;7.74;70.99;101586.28;685907;28;23112;-61
2021/04/19 00:40:27;;;;;;;12.90;9.63;;;;;;;7.75;70.97;101587.97;680816;28;137933;-61
2021/04/19 00:40:52;;;;;;;11.35;9.32;;;;;;;7.73;70.74;101582.75;685093;28;11204;-60
2021/04/19 00:41:13;;;;;;;12.10;9.25;;;;;;;7.74;70.75;101583.59;680929;28;74882;-59
2021/04/19 00:41:34;;;;;;;13.63;9.43;;;;;;;7.75;71.00;101586.13;682301;28;46310;-61
2021/04/19 00:41:55;;;;;;;13.07;9.77;;;;;;;7.74;70.78;101588.97;683498;28;16295;-60
2021/04/19 00:42:17;;;;;;;12.60;9.63;;;;;;;7.72;70.62;101582.88;682456;28;21556;-60
2021/04/19 00:42:39;;;;;;;12.52;9.60;;;;;;;7.71;70.98;101582.03;682184;28;43125;-61
2021/04/19 00:43:00;;;;;;;12.43;9.43;;;;;;;7.72;71.01;101585.56;683591;28;16768;-59
2021/04/19 00:43:22;;;;;;;14.27;9.77;;;;;;;7.70;70.87;101584.88;681777;28;44398;-60
2021/04/19 00:43:43;;;;;;;13.18;9.10;;;;;;;7.72;70.73;101582.88;682099;28;44290;-60
2021/04/19 00:44:05;;;;;;;11.45;9.60;;;;;;;7.71;70.60;101575.78;681972;28;22490;-61
2021/04/19 00:44:26;;;;;;;12.30;9.52;;;;;;;7.71;70.75;101581.16;681503;28;44361;-58
2021/04/19 00:44:48;;;;;;;12.15;9.55;;;;;;;7.70;70.83;101582.19;682823;28;23453;-59
2021/04/19 00:45:10;;;;;;;14.05;10.25;;;;;;;7.69;70.87;101583.16;683426;28;22421;-61
2021/04/19 00:45:32;;;;;;;12.63;9.82;;;;;;;7.67;70.93;101580.59;684775;28;46309;-59
2021/04/19 00:46:01;;;;;;;12.20;9.73;;;;;;;7.67;71.07;101583.28;684647;28;45250;-60
2021/04/19 00:46:23;;;;;;;12.13;9.70;;;;;;;7.67;70.87;101591.34;679093;28;135136;-61
2021/04/19 00:46:45;;;;;;;11.00;9.02;;;;;;;7.68;71.20;101582.31;682698;28;22411;-60
2021/04/19 00:47:07;;;;;;;11.88;9.10;;;;;;;7.67;71.03;101588.66;682390;28;57824;-60
2021/04/19 00:47:28;;;;;;;12.13;9.38;;;;;;;7.64;71.14;101583.56;681938;28;45260;-60
2021/04/19 00:47:49;;;;;;;12.50;9.32;;;;;;;7.66;71.02;101591.50;683231;28;18628;-58
2021/04/19 00:48:10;;;;;;;11.27;9.15;;;;;;;7.66;70.95;101586.13;683827;28;8513;-61
2021/04/19 00:48:33;;;;;;;10.85;9.27;;;;;;;7.66;70.83;101578.88;683531;28;10723;-60
2021/04/19 00:48:54;;;;;;;11.65;9.10;;;;;;;7.66;70.89;101583.44;682178;28;44386;-61
2021/04/19 00:49:16;;;;;;;11.23;8.82;;;;;;;7.66;70.96;101578.88;682672;28;44346;-60
2021/04/19 00:49:38;;;;;;;12.60;9.45;;;;;;;7.67;71.07;101577.91;684433;28;44394;-60
2021/04/19 00:50:00;;;;;;;14.27;9.48;;;;;;;7.65;70.84;101577.22;685844;28;24889;-58
2021/04/19 00:50:24;;;;;;;14.85;9.25;;;;;;;7.66;70.98;101583.44;684877;28;46035;-61
2021/04/19 00:50:46;;;;;;;13.32;9.38;;;;;;;7.65;70.87;101576.34;681342;28;69609;-61
2021/04/19 00:51:07;;;;;;;12.38;9.48;;;;;;;7.64;70.96;101571.97;682438;28;44370;-60
2021/04/19 00:51:28;;;;;;;13.68;9.48;;;;;;;7.63;70.91;101581.84;681970;28;46004;-59
2021/04/19 00:51:50;;;;;;;11.35;9.00;;;;;;;7.62;71.08;101577.47;683071;28;21518;-60
2021/04/19 00:52:11;;;;;;;13.15;10.05;;;;;;;7.63;70.82;101581.00;683196;28;22374;-61
2021/04/19 00:52:33;;;;;;;12.63;9.60;;;;;;;7.61;70.98;101569.56;682225;28;46402;-60
2021/04/19 00:52:55;;;;;;;12.38;9.45;;;;;;;7.62;70.84;101571.22;682276;28;46452;-60
2021/04/19 00:53:16;;;;;;;12.88;9.15;;;;;;;7.61;70.62;101577.63;684035;28;23489;-58
2021/04/19 00:53:37;;;;;;;11.65;8.77;;;;;;;7.59;70.98;101572.38;685664;28;22398;-59
2021/04/19 00:53:59;;;;;;;10.98;9.07;;;;;;;7.60;70.93;101576.75;684785;28;46336;-60
2021/04/19 00:54:20;;;;;;;11.38;9.18;;;;;;;7.58;70.95;101576.03;686173;28;22413;-57
2021/04/19 00:54:41;;;;;;;11.32;8.88;;;;;;;7.56;70.99;101573.50;684987;28;44385;-57
2021/04/19 00:55:08;;;;;;;11.98;9.23;;;;;;;7.57;70.88;101574.38;682775;28;21519;-60
2021/04/19 00:55:30;;;;;;;12.02;9.32;;;;;;;7.53;71.05;101581.00;679329;28;124401;-60
2021/04/19 00:55:52;;;;;;;12.57;9.40;;;;;;;7.52;71.12;101582.84;683170;28;2162;-58
2021/04/19 00:56:14;;;;;;;12.60;9.70;;;;;;;7.52;70.80;101573.91;681788;28;70338;-61
2021/04/19 00:56:35;;;;;;;12.25;9.60;;;;;;;7.53;70.83;101581.81;683788;28;7201;-61
2021/04/19 00:56:57;;;;;;;12.25;9.57;;;;;;;7.52;70.84;101579.28;685536;28;1065;-60
2021/04/19 00:57:18;;;;;;;13.73;9.70;;;;;;;7.51;71.10;101578.44;685978;28;19407;-59
2021/04/19 00:57:40;;;;;;;12.63;9.70;;;;;;;7.52;71.23;101579.28;680675;29;44305;-61
2021/04/19 00:58:02;;;;;;;13.65;9.82;;;;;;;7.50;71.16;101584.78;679540;29;46374;-61
2021/04/19 00:58:27;;;;;;;13.30;9.70;;;;;;;7.50;71.15;101582.09;680883;29;8355;-58
2021/04/19 00:58:48;;;;;;;12.82;9.65;;;;;;;7.51;71.26;101577.59;674333;29;114210;-57
2021/04/19 00:59:09;;;;;;;10.73;8.85;;;;;;;7.50;71.06;101576.72;676603;29;45195;-60
2021/04/19 00:59:30;;;;;;;9.95;8.48;;;;;;;7.49;71.29;101582.25;678278;29;22385;-61
2021/04/19 00:59:52;;;;;;;10.70;8.40;;;;;;;7.51;71.02;101583.81;680697;28;23309;-59
2021/04/19 01:00:16;;;;;;;10.52;8.75;;;;;;;7.52;71.13;101584.66;681880;28;41083;-60
2021/04/19 01:00:37;;;;;;;11.73;9.48;;;;;;;7.52;71.14;101590.03;683176;28;13474;-56
2021/04/19 01:00:59;;;;;;;11.73;9.32;;;;;;;7.52;70.92;101584.66;683143;28;15712;-61
2021/04/19 01:01:20;;;;;;;12.13;9.38;;;;;;;7.52;71.13;101584.66;682793;28;23438;-60
2021/04/19 01:01:47;;;;;;;13.02;9.48;;;;;;;7.52;71.13;101584.66;681547;28;61550;-59
2021/04/19 01:02:09;;;;;;;12.65;10.13;;;;;;;7.52;71.05;101582.84;680253;29;15210;-60
2021/04/19 01:02:32;;;;;;;13.15;10.15;;;;;;;7.54;70.99;101590.75;678369;29;1354;-59
2021/04/19 01:02:54;;;;;;;11.23;9.45;;;;;;;7.54;70.98;101588.06;677303;29;44303;-58
2021/04/19 01:03:15;;;;;;;11.25;9.10;;;;;;;7.53;71.03;101589.06;677171;29;42652;-60
2021/04/19 01:03:37;;;;;;;12.20;9.45;;;;;;;7.53;71.06;101586.38;680143;29;1539;-61
2021/04/19 01:03:59;;;;;;;12.15;9.27;;;;;;;7.52;71.10;101585.53;680652;28;45122;-60
2021/04/19 01:04:21;;;;;;;11.65;9.05;;;;;;;7.53;71.30;101581.81;683125;28;21551;-61
2021/04/19 01:04:43;;;;;;;10.93;9.55;;;;;;;7.51;70.95;101574.91;680440;28;66868;-61
2021/04/19 01:05:08;;;;;;;11.27;9.38;;;;;;;7.53;71.21;101589.91;682017;28;38462;-60
2021/04/19 01:05:32;;;;;;;11.43;9.35;;;;;;;7.53;71.07;101584.53;679947;29;83667;-59
2021/04/19 01:05:54;;;;;;;12.50;9.65;;;;;;;7.53;71.25;101594.44;679597;28;115846;-61
2021/04/19 01:06:15;;;;;;;12.20;9.43;;;;;;;7.52;71.16;101587.34;681710;28;46430;-58
2021/04/19 01:06:37;;;;;;;12.60;9.82;;;;;;;7.51;71.07;101586.50;683042;28;13020;-60
2021/04/19 01:06:59;;;;;;;12.38;9.57;;;;;;;7.51;71.20;101591.03;682289;28;23511;-60
2021/04/19 01:07:21;;;;;;;10.40;9.25;;;;;;;7.51;71.06;101586.50;681789;28;69470;-59
2021/04/19 01:07:44;;;;;;;11.68;9.40;;;;;;;7.52;71.10;101587.34;681631;28;57527;-60
2021/04/19 01:08:07;;;;;;;11.65;9.52;;;;;;;7.53;71.08;101586.38;680130;29;46385;-61
2021/04/19 01:08:28;;;;;;;12.38;10.10;;;;;;;7.50;71.10;101584.78;679887;29;69486;-59
2021/04/19 01:08:50;;;;;;;13.05;9.77;;;;;;;7.49;71.08;101580.41;679000;29;22957;-56
2021/04/19 01:09:11;;;;;;;12.25;9.10;;;;;;;7.50;71.00;101586.63;680168;29;22376;-60
2021/04/19 01:09:33;;;;;;;11.95;9.63;;;;;;;7.48;71.27;101594.84;679801;29;46448;-59
2021/04/19 01:09:54;;;;;;;12.20;9.30;;;;;;;7.47;70.99;101586.91;678701;29;45763;-60
2021/04/19 01:10:15;;;;;;;12.45;9.88;;;;;;;7.47;71.16;101585.06;681391;29;23513;-59
2021/04/19 01:10:38;;;;;;;12.00;9.93;;;;;;;7.49;71.34;101584.94;682996;28;1068;-59
2021/04/19 01:11:01;;;;;;;12.00;9.65;;;;;;;7.48;71.00;101594.84;683480;28;42114;-60
2021/04/19 01:11:22;;;;;;;11.82;9.60;;;;;;;7.47;70.99;101587.75;683082;28;46406;-58
2021/04/19 01:11:43;;;;;;;11.43;9.30;;;;;;;7.48;71.09;101594.00;683755;28;11747;-58
2021/04/19 01:12:06;;;;;;;10.77;9.27;;;;;;;7.46;70.96;101591.44;684438;28;46392;-60
2021/04/19 01:12:28;;;;;;;13.13;9.38;;;;;;;7.46;70.90;101590.56;685591;28;13075;-60
2021/04/19 01:12:50;;;;;;;11.80;8.95;;;;;;;7.47;70.95;101598.50;682019;28;42501;-58
2021/04/19 01:13:12;;;;;;;12.35;9.45;;;;;;;7.45;71.05;101588.88;678066;29;45263;-60
2021/04/19 01:13:34;;;;;;;13.18;9.18;;;;;;;7.44;71.30;101589.88;678722;29;40978;-60
2021/04/19 01:13:55;;;;;;;13.52;9.35;;;;;;;7.45;70.99;101594.25;680438;29;23551;-60
2021/04/19 01:14:20;;;;;;;11.98;9.57;;;;;;;7.44;71.29;101590.72;678313;29;115043;-61
2021/04/19 01:14:42;;;;;;;12.70;9.45;;;;;;;7.44;71.09;101588.03;679123;29;44364;-61
2021/04/19 01:15:05;;;;;;;11.23;9.15;;;;;;;7.44;70.95;101587.19;678060;29;22373;-59
2021/04/19 01:15:26;;;;;;;12.00;8.90;;;;;;;7.45;71.22;101592.41;676083;29;66783;-58
2021/04/19 01:15:49;;;;;;;12.27;9.60;;;;;;;7.44;71.01;101582.66;676193;29;69444;-61
2021/04/19 01:16:11;;;;;;;11.30;9.13;;;;;;;7.44;71.21;101587.19;676963;29;68145;-61
2021/04/19 01:16:33;;;;;;;11.38;9.35;;;;;;;7.44;71.01;101590.72;681372;28;17493;-60
2021/04/19 01:16:54;;;;;;;11.95;9.35;;;;;;;7.45;70.73;101588.88;684026;28;21528;-60
2021/04/19 01:17:15;;;;;;;15.25;9.55;;;;;;;7.43;70.94;101588.16;685596;28;22355;-60
2021/04/19 01:17:37;;;;;;;12.93;9.05;;;;;;;7.44;70.72;101588.03;682828;28;39455;-61
2021/04/19 01:17:59;;;;;;;11.82;8.95;;;;;;;7.43;70.86;101585.47;680547;29;32315;-58
2021/04/19 01:18:21;;;;;;;13.07;9.63;;;;;;;7.43;70.89;101577.41;678708;29;67470;-61
2021/04/19 01:18:43;;;;;;;12.05;9.50;;;;;;;7.40;70.63;101582.06;679776;29;21553;-59
2021/04/19 01:19:04;;;;;;;11.65;9.50;;;;;;;7.42;70.92;101581.94;680734;28;22402;-58
2021/04/19 01:19:26;;;;;;;10.52;8.93;;;;;;;7.42;71.12;101578.41;680437;28;45245;-60
2021/04/19 01:19:47;;;;;;;12.30;9.15;;;;;;;7.42;70.91;101583.78;681995;28;44358;-60
2021/04/19 01:20:13;;;;;;;12.05;9.35;;;;;;;7.40;70.62;101587.44;682549;28;22484;-61
2021/04/19 01:20:39;;;;;;;12.27;9.60;;;;;;;7.41;70.95;101582.91;682401;28;113353;-61
2021/04/19 01:21:01;;;;;;;13.15;10.02;;;;;;;7.39;70.68;101584.91;681243;28;138167;-61
2021/04/19 01:21:23;;;;;;;12.77;10.10;;;;;;;7.38;70.67;101583.19;681617;28;69335;-57
2021/04/19 01:21:45;;;;;;;12.35;9.65;;;;;;;7.38;70.80;101585.88;683051;28;23487;-61
2021/04/19 01:22:08;;;;;;;13.85;9.93;;;;;;;7.37;71.07;101584.19;677495;29;46372;-59
2021/04/19 01:22:29;;;;;;;12.98;9.73;;;;;;;7.36;70.83;101580.63;676547;29;46352;-61
2021/04/19 01:22:51;;;;;;;11.82;9.68;;;;;;;7.36;71.21;101585.16;678835;29;21519;-60
2021/04/19 01:23:13;;;;;;;11.88;8.80;;;;;;;7.37;71.00;101581.50;678442;29;47310;-59
2021/04/19 01:23:36;;;;;;;13.30;9.73;;;;;;;7.36;70.97;101579.78;679508;29;44513;-59
2021/04/19 01:23:58;;;;;;;13.02;10.25;;;;;;;7.35;71.23;101575.38;680508;28;92382;-61
2021/04/19 01:24:21;;;;;;;12.85;9.80;;;;;;;7.37;71.25;101573.44;682663;28;69732;-61
2021/04/19 01:24:43;;;;;;;12.55;9.32;;;;;;;7.37;71.24;101581.50;684913;28;34359;-59
2021/04/19 01:25:06;;;;;;;11.50;9.57;;;;;;;7.38;71.00;101577.81;684624;28;42914;-61
2021/04/19 01:25:30;;;;;;;12.65;9.60;;;;;;;7.37;71.23;101586.88;681931;28;69471;-59
2021/04/19 01:25:51;;;;;;;14.88;10.10;;;;;;;7.37;70.99;101576.97;680252;28;69366;-60
2021/04/19 01:26:12;;;;;;;12.75;9.15;;;;;;;7.38;71.06;101581.38;683267;28;23614;-61
2021/04/19 01:26:33;;;;;;;10.75;9.05;;;;;;;7.38;71.02;101581.38;682182;28;46390;-58
2021/04/19 01:26:55;;;;;;;11.13;8.82;;;;;;;7.38;71.13;101573.31;682410;28;22407;-61
2021/04/19 01:27:17;;;;;;;11.23;8.73;;;;;;;7.38;71.06;101581.38;681727;28;47305;-61
2021/04/19 01:27:44;;;;;;;11.65;9.43;;;;;;;7.39;71.18;101574.97;681866;28;59801;-59
2021/04/19 01:28:06;;;;;;;10.60;8.75;;;;;;;7.40;71.09;101578.53;682848;28;39443;-61
2021/04/19 01:28:28;;;;;;;11.55;9.50;;;;;;;7.39;70.92;101574.97;682544;28;40233;-61
2021/04/19 01:28:50;;;;;;;10.27;8.60;;;;;;;7.38;71.14;101581.38;682707;28;29053;-60
2021/04/19 01:29:13;;;;;;;11.00;8.82;;;;;;;7.39;70.90;101584.91;683395;28;1189;-59
2021/04/19 01:29:34;;;;;;;11.00;9.40;;;;;;;7.40;70.92;101587.44;682076;28;22400;-61
2021/04/19 01:29:55;;;;;;;11.27;9.07;;;;;;;7.41;71.13;101582.91;683714;28;1455;-60
2021/04/19 01:30:20;;;;;;;11.77;9.05;;;;;;;7.41;71.16;101582.91;683095;28;24533;-60
2021/04/19 01:30:43;;;;;;;11.88;9.07;;;;;;;7.42;70.95;101573.88;680831;28;77630;-57
2021/04/19 01:31:06;;;;;;;10.80;8.90;;;;;;;7.42;71.18;101573.03;682413;28;36949;-59
2021/04/19 01:31:30;;;;;;;12.68;9.55;;;;;;;7.44;71.16;101576.44;679614;28;115380;-58
2021/04/19 01:32:00;;;;;;;14.23;10.05;;;;;;;7.45;71.24;101578.13;681898;28;61644;-60
2021/04/19 01:32:22;;;;;;;13.00;9.93;;;;;;;7.45;70.86;101578.13;681273;28;67608;-58
2021/04/19 01:32:44;;;;;;;12.98;9.75;;;;;;;7.45;70.70;101580.81;682404;28;46367;-61
2021/04/19 01:33:05;;;;;;;13.55;9.80;;;;;;;7.45;71.11;101578.13;682255;28;44163;-57
2021/04/19 01:33:28;;;;;;;12.97;9.63;;;;;;;7.45;70.71;101584.34;682765;28;16441;-60
2021/04/19 01:33:49;;;;;;;11.60;9.48;;;;;;;7.44;70.84;101588.03;681349;28;37715;-61
2021/04/19 01:34:10;;;;;;;12.20;9.35;;;;;;;7.45;70.60;101583.50;682553;28;21534;-61
2021/04/19 01:34:32;;;;;;;13.55;9.95;;;;;;;7.42;70.94;101579.25;679404;29;45354;-61
2021/04/19 01:34:53;;;;;;;13.45;9.77;;;;;;;7.44;70.59;101579.97;681659;28;23744;-60
2021/04/19 01:35:15;;;;;;;14.10;9.50;;;;;;;7.44;70.88;101579.13;680406;29;21518;-60
2021/04/19 01:35:37;;;;;;;12.95;9.43;;;;;;;7.44;70.74;101585.31;679343;28;67501;-61
2021/04/19 01:35:59;;;;;;;12.13;9.55;;;;;;;7.45;70.87;101580.81;680472;29;44211;-60
2021/04/19 01:36:23;;;;;;;11.80;9.85;;;;;;;7.43;70.73;101589.03;678333;29;69540;-61
2021/04/19 01:36:47;;;;;;;12.73;9.30;;;;;;;7.44;70.61;101582.66;678689;29;81127;-61
2021/04/19 01:37:10;;;;;;;11.27;9.30;;;;;;;7.44;70.50;101587.19;675870;29;112813;-61
2021/04/19 01:37:31;;;;;;;11.75;9.57;;;;;;;7.44;70.68;101579.97;676375;29;23488;-60
2021/04/19 01:37:54;;;;;;;10.88;9.40;;;;;;;7.44;70.83;101587.19;678079;29;70212;-61
2021/04/19 01:38:20;;;;;;;12.48;9.73;;;;;;;7.43;70.80;101589.03;677937;29;56304;-61
2021/04/19 01:38:42;;;;;;;14.00;10.02;;;;;;;7.43;70.64;101588.16;678189;29;97497;-59
2021/04/19 01:39:04;;;;;;;14.32;10.13;;;;;;;7.43;70.90;101589.03;681989;29;14108;-59
2021/04/19 01:39:26;;;;;;;11.65;9.50;;;;;;;7.43;70.56;101586.34;680400;29;30882;-57
2021/04/19 01:39:48;;;;;;;12.15;9.52;;;;;;;7.43;70.89;101594.41;680473;29;38877;-61
2021/04/19 01:40:12;;;;;;;12.70;10.15;;;;;;;7.43;70.73;101589.03;682100;28;23906;-58
2021/04/19 01:40:34;;;;;;;13.32;9.60;;;;;;;7.43;71.04;101589.03;681031;28;116036;-61
2021/04/19 01:40:56;;;;;;;12.95;9.80;;;;;;;7.43;70.82;101589.03;681665;28;46470;-60
2021/04/19 01:41:18;;;;;;;12.15;9.63;;;;;;;7.43;70.88;101588.16;682124;28;1182;-61
2021/04/19 01:41:39;;;;;;;13.68;10.05;;;;;;;7.44;70.87;101590.72;680309;28;38735;-61
2021/04/19 01:42:01;;;;;;;12.70;9.38;;;;;;;7.44;71.31;101588.03;682587;28;40010;-59
2021/04/19 01:42:22;;;;;;;12.05;9.85;;;;;;;7.46;71.03;101579.81;680071;29;22501;-58
2021/04/19 01:42:43;;;;;;;12.40;9.93;;;;;;;7.45;70.96;101584.34;680888;28;22393;-60
2021/04/19 01:43:06;;;;;;;13.35;10.15;;;;;;;7.45;70.85;101586.19;681432;28;44388;-57
2021/04/19 01:43:39;;;;;;;11.68;9.45;;;;;;;7.44;71.00;101592.56;679114;28;138418;-60